sensor_id;sensor_type;location;lat;lon;timestamp;P1;durP1;ratioP1;P2;durP2;ratioP2
38581;SDS011;24349;53.720;10.014;2023-03-14T00:02:16;11.90;;;3.38;;
38581;SDS011;24349;53.720;10.014;2023-03-14T00:04:42;14.10;;;3.33;;
38581;SDS011;24349;53.720;10.014;2023-03-14T00:07:09;11.98;;;2.92;;
38581;SDS011;24349;53.720;10.014;2023-03-14T00:09:36;11.38;;;3.33;;
38581;SDS011;24349;53.720;10.014;2023-03-14T00:12:01;14.57;;;3.75;;
38581;SDS011;24349;53.720;10.014;2023-03-14T00:14:28;10.45;;;2.97;;
38581;SDS011;24349;53.720;10.014;2023-03-14T00:16:54;12.07;;;3.00;;
38581;SDS011;24349;53.720;10.014;2023-03-14T00:19:19;9.20;;;2.20;;
38581;SDS011;24349;53.720;10.014;2023-03-14T00:21:46;10.55;;;2.95;;
38581;SDS011;24349;53.720;10.014;2023-03-14T00:24:11;12.10;;;3.17;;
38581;SDS011;24349;53.720;10.014;2023-03-14T00:26:37;12.38;;;3.35;;
38581;SDS011;24349;53.720;10.014;2023-03-14T00:29:03;9.18;;;3.75;;
38581;SDS011;24349;53.720;10.014;2023-03-14T00:31:29;11.00;;;3.30;;
38581;SDS011;24349;53.720;10.014;2023-03-14T00:33:54;9.07;;;3.03;;
38581;SDS011;24349;53.720;10.014;2023-03-14T00:36:20;9.52;;;3.20;;
38581;SDS011;24349;53.720;10.014;2023-03-14T00:38:47;10.75;;;3.10;;
38581;SDS011;24349;53.720;10.014;2023-03-14T00:41:16;11.15;;;3.60;;
38581;SDS011;24349;53.720;10.014;2023-03-14T00:43:43;11.50;;;2.85;;
38581;SDS011;24349;53.720;10.014;2023-03-14T00:46:09;8.50;;;2.97;;
38581;SDS011;24349;53.720;10.014;2023-03-14T00:48:35;13.10;;;3.35;;
38581;SDS011;24349;53.720;10.014;2023-03-14T00:51:01;10.30;;;3.05;;
38581;SDS011;24349;53.720;10.014;2023-03-14T00:53:28;7.97;;;2.88;;
38581;SDS011;24349;53.720;10.014;2023-03-14T00:55:54;9.77;;;2.88;;
38581;SDS011;24349;53.720;10.014;2023-03-14T00:58:19;9.30;;;2.90;;
38581;SDS011;24349;53.720;10.014;2023-03-14T01:00:45;10.27;;;2.95;;
38581;SDS011;24349;53.720;10.014;2023-03-14T01:03:12;9.55;;;2.78;;
38581;SDS011;24349;53.720;10.014;2023-03-14T01:05:39;9.43;;;3.08;;
38581;SDS011;24349;53.720;10.014;2023-03-14T01:08:05;10.70;;;2.80;;
38581;SDS011;24349;53.720;10.014;2023-03-14T01:10:31;10.18;;;3.85;;
38581;SDS011;24349;53.720;10.014;2023-03-14T01:12:58;13.07;;;2.88;;
38581;SDS011;24349;53.720;10.014;2023-03-14T01:15:23;10.65;;;3.13;;
38581;SDS011;24349;53.720;10.014;2023-03-14T01:17:49;12.93;;;3.38;;
38581;SDS011;24349;53.720;10.014;2023-03-14T01:20:15;11.80;;;3.13;;
38581;SDS011;24349;53.720;10.014;2023-03-14T01:22:41;10.88;;;2.90;;
38581;SDS011;24349;53.720;10.014;2023-03-14T01:25:09;10.98;;;2.88;;
38581;SDS011;24349;53.720;10.014;2023-03-14T01:27:36;10.70;;;2.80;;
38581;SDS011;24349;53.720;10.014;2023-03-14T01:30:02;11.05;;;3.53;;
38581;SDS011;24349;53.720;10.014;2023-03-14T01:32:29;13.57;;;3.33;;
38581;SDS011;24349;53.720;10.014;2023-03-14T01:34:54;13.82;;;3.03;;
38581;SDS011;24349;53.720;10.014;2023-03-14T01:37:20;12.07;;;3.25;;
38581;SDS011;24349;53.720;10.014;2023-03-14T01:39:46;11.75;;;2.85;;
38581;SDS011;24349;53.720;10.014;2023-03-14T01:42:12;11.82;;;3.20;;
38581;SDS011;24349;53.720;10.014;2023-03-14T01:44:54;13.07;;;3.20;;
38581;SDS011;24349;53.720;10.014;2023-03-14T01:47:21;11.63;;;3.05;;
38581;SDS011;24349;53.720;10.014;2023-03-14T01:50:07;12.95;;;2.70;;
38581;SDS011;24349;53.720;10.014;2023-03-14T01:52:46;10.00;;;2.80;;
38581;SDS011;24349;53.720;10.014;2023-03-14T01:55:19;12.70;;;3.70;;
38581;SDS011;24349;53.720;10.014;2023-03-14T01:57:56;10.57;;;2.70;;
38581;SDS011;24349;53.720;10.014;2023-03-14T02:00:26;8.95;;;3.08;;
38581;SDS011;24349;53.720;10.014;2023-03-14T02:02:55;8.85;;;2.50;;
38581;SDS011;24349;53.720;10.014;2023-03-14T02:05:27;12.95;;;3.63;;
38581;SDS011;24349;53.720;10.014;2023-03-14T02:07:58;10.27;;;3.10;;
38581;SDS011;24349;53.720;10.014;2023-03-14T02:10:27;9.95;;;2.80;;
38581;SDS011;24349;53.720;10.014;2023-03-14T02:13:03;11.23;;;2.72;;
38581;SDS011;24349;53.720;10.014;2023-03-14T02:15:30;9.15;;;3.00;;
38581;SDS011;24349;53.720;10.014;2023-03-14T02:17:57;10.30;;;3.70;;
38581;SDS011;24349;53.720;10.014;2023-03-14T02:20:42;7.97;;;2.90;;
38581;SDS011;24349;53.720;10.014;2023-03-14T02:23:14;9.68;;;2.85;;
38581;SDS011;24349;53.720;10.014;2023-03-14T02:25:51;10.15;;;2.90;;
38581;SDS011;24349;53.720;10.014;2023-03-14T02:28:22;11.20;;;2.92;;
38581;SDS011;24349;53.720;10.014;2023-03-14T02:30:48;9.45;;;2.85;;
38581;SDS011;24349;53.720;10.014;2023-03-14T02:33:16;8.60;;;3.00;;
38581;SDS011;24349;53.720;10.014;2023-03-14T02:35:44;9.25;;;3.05;;
38581;SDS011;24349;53.720;10.014;2023-03-14T02:38:23;8.73;;;2.97;;
38581;SDS011;24349;53.720;10.014;2023-03-14T02:40:54;9.38;;;3.03;;
38581;SDS011;24349;53.720;10.014;2023-03-14T02:43:19;8.48;;;3.33;;
38581;SDS011;24349;53.720;10.014;2023-03-14T02:45:48;10.00;;;3.50;;
38581;SDS011;24349;53.720;10.014;2023-03-14T02:48:19;11.52;;;3.60;;
38581;SDS011;24349;53.720;10.014;2023-03-14T02:50:48;7.90;;;3.13;;
38581;SDS011;24349;53.720;10.014;2023-03-14T02:53:18;8.98;;;3.10;;
38581;SDS011;24349;53.720;10.014;2023-03-14T02:55:48;7.95;;;3.03;;
38581;SDS011;24349;53.720;10.014;2023-03-14T02:58:14;8.82;;;3.17;;
38581;SDS011;24349;53.720;10.014;2023-03-14T03:00:40;8.32;;;3.20;;
38581;SDS011;24349;53.720;10.014;2023-03-14T03:03:06;9.65;;;3.50;;
38581;SDS011;24349;53.720;10.014;2023-03-14T03:05:32;12.13;;;3.28;;
38581;SDS011;24349;53.720;10.014;2023-03-14T03:07:58;11.77;;;4.18;;
38581;SDS011;24349;53.720;10.014;2023-03-14T03:10:23;9.30;;;3.40;;
38581;SDS011;24349;53.720;10.014;2023-03-14T03:12:49;8.30;;;3.25;;
38581;SDS011;24349;53.720;10.014;2023-03-14T03:15:16;11.38;;;3.80;;
38581;SDS011;24349;53.720;10.014;2023-03-14T03:17:42;8.32;;;3.50;;
38581;SDS011;24349;53.720;10.014;2023-03-14T03:20:08;10.93;;;4.10;;
38581;SDS011;24349;53.720;10.014;2023-03-14T03:22:35;6.97;;;3.47;;
38581;SDS011;24349;53.720;10.014;2023-03-14T03:25:02;12.55;;;3.65;;
38581;SDS011;24349;53.720;10.014;2023-03-14T03:27:33;10.80;;;3.83;;
38581;SDS011;24349;53.720;10.014;2023-03-14T03:30:00;8.48;;;3.28;;
38581;SDS011;24349;53.720;10.014;2023-03-14T03:32:26;8.85;;;3.65;;
38581;SDS011;24349;53.720;10.014;2023-03-14T03:34:52;9.43;;;3.50;;
38581;SDS011;24349;53.720;10.014;2023-03-14T03:37:18;8.18;;;3.58;;
38581;SDS011;24349;53.720;10.014;2023-03-14T03:39:43;9.23;;;3.55;;
38581;SDS011;24349;53.720;10.014;2023-03-14T03:42:09;8.85;;;3.63;;
38581;SDS011;24349;53.720;10.014;2023-03-14T03:44:35;9.45;;;3.83;;
38581;SDS011;24349;53.720;10.014;2023-03-14T03:47:01;9.57;;;3.65;;
38581;SDS011;24349;53.720;10.014;2023-03-14T03:49:30;9.10;;;3.85;;
38581;SDS011;24349;53.720;10.014;2023-03-14T03:51:56;11.48;;;3.90;;
38581;SDS011;24349;53.720;10.014;2023-03-14T03:54:22;10.75;;;4.20;;
38581;SDS011;24349;53.720;10.014;2023-03-14T03:56:48;8.38;;;3.60;;
38581;SDS011;24349;53.720;10.014;2023-03-14T03:59:14;9.30;;;3.67;;
38581;SDS011;24349;53.720;10.014;2023-03-14T04:01:39;7.95;;;3.13;;
38581;SDS011;24349;53.720;10.014;2023-03-14T04:04:05;12.02;;;3.70;;
38581;SDS011;24349;53.720;10.014;2023-03-14T04:06:31;7.40;;;3.60;;
38581;SDS011;24349;53.720;10.014;2023-03-14T04:08:57;8.35;;;3.08;;
38581;SDS011;24349;53.720;10.014;2023-03-14T04:11:22;9.25;;;3.25;;
38581;SDS011;24349;53.720;10.014;2023-03-14T04:13:48;8.63;;;3.15;;
38581;SDS011;24349;53.720;10.014;2023-03-14T04:16:18;7.07;;;2.97;;
38581;SDS011;24349;53.720;10.014;2023-03-14T04:18:46;7.00;;;3.25;;
38581;SDS011;24349;53.720;10.014;2023-03-14T04:21:11;11.23;;;3.40;;
38581;SDS011;24349;53.720;10.014;2023-03-14T04:23:37;8.32;;;3.13;;
38581;SDS011;24349;53.720;10.014;2023-03-14T04:26:03;7.32;;;3.33;;
38581;SDS011;24349;53.720;10.014;2023-03-14T04:28:29;10.57;;;3.55;;
38581;SDS011;24349;53.720;10.014;2023-03-14T04:30:54;8.02;;;2.80;;
38581;SDS011;24349;53.720;10.014;2023-03-14T04:33:20;8.30;;;3.17;;
38581;SDS011;24349;53.720;10.014;2023-03-14T04:35:46;9.82;;;3.45;;
38581;SDS011;24349;53.720;10.014;2023-03-14T04:38:12;8.88;;;3.65;;
38581;SDS011;24349;53.720;10.014;2023-03-14T04:40:38;10.98;;;3.30;;
38581;SDS011;24349;53.720;10.014;2023-03-14T04:43:05;10.18;;;4.28;;
38581;SDS011;24349;53.720;10.014;2023-03-14T04:45:31;7.85;;;3.28;;
38581;SDS011;24349;53.720;10.014;2023-03-14T04:47:57;6.88;;;2.47;;
38581;SDS011;24349;53.720;10.014;2023-03-14T04:50:22;5.60;;;1.58;;
38581;SDS011;24349;53.720;10.014;2023-03-14T04:52:48;8.00;;;1.80;;
38581;SDS011;24349;53.720;10.014;2023-03-14T04:55:14;4.63;;;1.88;;
38581;SDS011;24349;53.720;10.014;2023-03-14T04:57:40;7.03;;;2.08;;
38581;SDS011;24349;53.720;10.014;2023-03-14T05:00:05;6.68;;;1.50;;
38581;SDS011;24349;53.720;10.014;2023-03-14T05:02:32;5.50;;;1.60;;
38581;SDS011;24349;53.720;10.014;2023-03-14T05:04:59;1.88;;;0.85;;
38581;SDS011;24349;53.720;10.014;2023-03-14T05:07:24;5.93;;;1.80;;
38581;SDS011;24349;53.720;10.014;2023-03-14T05:09:50;3.95;;;1.35;;
38581;SDS011;24349;53.720;10.014;2023-03-14T05:12:16;5.78;;;1.50;;
38581;SDS011;24349;53.720;10.014;2023-03-14T05:14:41;4.50;;;1.33;;
38581;SDS011;24349;53.720;10.014;2023-03-14T05:17:07;5.90;;;1.60;;
38581;SDS011;24349;53.720;10.014;2023-03-14T05:19:33;7.20;;;1.63;;
38581;SDS011;24349;53.720;10.014;2023-03-14T05:21:58;5.22;;;1.63;;
38581;SDS011;24349;53.720;10.014;2023-03-14T05:24:24;6.32;;;1.63;;
38581;SDS011;24349;53.720;10.014;2023-03-14T05:26:50;5.90;;;1.85;;
38581;SDS011;24349;53.720;10.014;2023-03-14T05:29:15;5.50;;;1.75;;
38581;SDS011;24349;53.720;10.014;2023-03-14T05:31:41;4.15;;;1.25;;
38581;SDS011;24349;53.720;10.014;2023-03-14T05:34:06;6.45;;;1.77;;
38581;SDS011;24349;53.720;10.014;2023-03-14T05:36:32;6.03;;;1.40;;
38581;SDS011;24349;53.720;10.014;2023-03-14T05:38:57;5.60;;;1.65;;
38581;SDS011;24349;53.720;10.014;2023-03-14T05:41:23;6.93;;;1.80;;
38581;SDS011;24349;53.720;10.014;2023-03-14T05:43:48;5.95;;;1.98;;
38581;SDS011;24349;53.720;10.014;2023-03-14T05:46:14;6.40;;;2.00;;
38581;SDS011;24349;53.720;10.014;2023-03-14T05:48:40;5.63;;;2.10;;
38581;SDS011;24349;53.720;10.014;2023-03-14T05:51:05;6.57;;;1.85;;
38581;SDS011;24349;53.720;10.014;2023-03-14T05:53:31;5.75;;;1.95;;
38581;SDS011;24349;53.720;10.014;2023-03-14T05:55:57;5.60;;;2.10;;
38581;SDS011;24349;53.720;10.014;2023-03-14T05:58:23;4.95;;;2.00;;
38581;SDS011;24349;53.720;10.014;2023-03-14T06:00:49;6.13;;;2.53;;
38581;SDS011;24349;53.720;10.014;2023-03-14T06:03:15;7.03;;;3.15;;
38581;SDS011;24349;53.720;10.014;2023-03-14T06:05:41;6.60;;;2.80;;
38581;SDS011;24349;53.720;10.014;2023-03-14T06:08:06;9.27;;;2.60;;
38581;SDS011;24349;53.720;10.014;2023-03-14T06:10:32;6.50;;;3.15;;
38581;SDS011;24349;53.720;10.014;2023-03-14T06:12:59;8.65;;;3.22;;
38581;SDS011;24349;53.720;10.014;2023-03-14T06:15:25;8.57;;;3.53;;
38581;SDS011;24349;53.720;10.014;2023-03-14T06:17:50;6.22;;;3.20;;
38581;SDS011;24349;53.720;10.014;2023-03-14T06:20:18;9.35;;;3.60;;
38581;SDS011;24349;53.720;10.014;2023-03-14T06:22:44;8.40;;;3.63;;
38581;SDS011;24349;53.720;10.014;2023-03-14T06:25:09;8.82;;;3.50;;
38581;SDS011;24349;53.720;10.014;2023-03-14T06:27:35;7.72;;;4.00;;
38581;SDS011;24349;53.720;10.014;2023-03-14T06:30:00;10.35;;;4.13;;
38581;SDS011;24349;53.720;10.014;2023-03-14T06:32:26;8.50;;;4.13;;
38581;SDS011;24349;53.720;10.014;2023-03-14T06:34:52;8.85;;;4.03;;
38581;SDS011;24349;53.720;10.014;2023-03-14T06:37:18;7.93;;;4.30;;
38581;SDS011;24349;53.720;10.014;2023-03-14T06:39:43;10.07;;;5.00;;
38581;SDS011;24349;53.720;10.014;2023-03-14T06:42:09;10.32;;;5.40;;
38581;SDS011;24349;53.720;10.014;2023-03-14T06:44:35;10.63;;;5.20;;
38581;SDS011;24349;53.720;10.014;2023-03-14T06:47:01;11.48;;;5.57;;
38581;SDS011;24349;53.720;10.014;2023-03-14T06:49:26;12.40;;;6.10;;
38581;SDS011;24349;53.720;10.014;2023-03-14T06:51:52;10.88;;;5.78;;
38581;SDS011;24349;53.720;10.014;2023-03-14T06:54:17;11.55;;;6.15;;
38581;SDS011;24349;53.720;10.014;2023-03-14T06:56:43;10.30;;;6.10;;
38581;SDS011;24349;53.720;10.014;2023-03-14T06:59:09;9.85;;;5.13;;
38581;SDS011;24349;53.720;10.014;2023-03-14T07:01:34;9.00;;;5.10;;
38581;SDS011;24349;53.720;10.014;2023-03-14T07:04:00;11.30;;;5.72;;
38581;SDS011;24349;53.720;10.014;2023-03-14T07:06:26;10.20;;;5.13;;
38581;SDS011;24349;53.720;10.014;2023-03-14T07:08:54;9.30;;;5.43;;
38581;SDS011;24349;53.720;10.014;2023-03-14T07:11:20;9.38;;;4.53;;
38581;SDS011;24349;53.720;10.014;2023-03-14T07:13:46;10.18;;;4.55;;
38581;SDS011;24349;53.720;10.014;2023-03-14T07:16:12;11.25;;;4.97;;
38581;SDS011;24349;53.720;10.014;2023-03-14T07:18:37;11.18;;;5.25;;
38581;SDS011;24349;53.720;10.014;2023-03-14T07:21:04;11.77;;;5.22;;
38581;SDS011;24349;53.720;10.014;2023-03-14T07:23:30;11.48;;;4.32;;
38581;SDS011;24349;53.720;10.014;2023-03-14T07:25:56;11.38;;;4.43;;
38581;SDS011;24349;53.720;10.014;2023-03-14T07:28:22;11.52;;;4.13;;
38581;SDS011;24349;53.720;10.014;2023-03-14T07:30:48;11.05;;;4.00;;
38581;SDS011;24349;53.720;10.014;2023-03-14T07:33:14;9.00;;;3.85;;
38581;SDS011;24349;53.720;10.014;2023-03-14T07:35:40;7.03;;;3.20;;
38581;SDS011;24349;53.720;10.014;2023-03-14T07:38:05;8.13;;;3.50;;
38581;SDS011;24349;53.720;10.014;2023-03-14T07:40:31;9.48;;;3.45;;
38581;SDS011;24349;53.720;10.014;2023-03-14T07:42:56;10.38;;;3.80;;
38581;SDS011;24349;53.720;10.014;2023-03-14T07:45:22;8.20;;;3.35;;
38581;SDS011;24349;53.720;10.014;2023-03-14T07:47:48;11.95;;;3.13;;
38581;SDS011;24349;53.720;10.014;2023-03-14T07:50:13;7.75;;;2.63;;
38581;SDS011;24349;53.720;10.014;2023-03-14T07:52:39;6.65;;;2.90;;
38581;SDS011;24349;53.720;10.014;2023-03-14T07:55:05;8.93;;;2.83;;
38581;SDS011;24349;53.720;10.014;2023-03-14T07:57:31;7.85;;;3.03;;
38581;SDS011;24349;53.720;10.014;2023-03-14T07:59:56;6.28;;;2.17;;
38581;SDS011;24349;53.720;10.014;2023-03-14T08:02:22;7.88;;;2.90;;
38581;SDS011;24349;53.720;10.014;2023-03-14T08:04:49;8.35;;;3.13;;
38581;SDS011;24349;53.720;10.014;2023-03-14T08:07:15;9.07;;;2.80;;
38581;SDS011;24349;53.720;10.014;2023-03-14T08:09:41;7.40;;;2.60;;
38581;SDS011;24349;53.720;10.014;2023-03-14T08:12:07;7.15;;;2.45;;
38581;SDS011;24349;53.720;10.014;2023-03-14T08:14:32;8.10;;;3.08;;
38581;SDS011;24349;53.720;10.014;2023-03-14T08:16:58;7.68;;;2.70;;
38581;SDS011;24349;53.720;10.014;2023-03-14T08:19:24;7.82;;;2.47;;
38581;SDS011;24349;53.720;10.014;2023-03-14T08:21:50;6.28;;;2.60;;
38581;SDS011;24349;53.720;10.014;2023-03-14T08:24:15;8.10;;;3.17;;
38581;SDS011;24349;53.720;10.014;2023-03-14T08:26:41;9.13;;;2.58;;
38581;SDS011;24349;53.720;10.014;2023-03-14T08:29:07;7.38;;;2.90;;
38581;SDS011;24349;53.720;10.014;2023-03-14T08:31:33;9.48;;;2.97;;
38581;SDS011;24349;53.720;10.014;2023-03-14T08:34:00;9.57;;;2.80;;
38581;SDS011;24349;53.720;10.014;2023-03-14T08:36:26;7.82;;;2.63;;
38581;SDS011;24349;53.720;10.014;2023-03-14T08:38:52;7.57;;;2.30;;
38581;SDS011;24349;53.720;10.014;2023-03-14T08:41:18;7.63;;;2.38;;
38581;SDS011;24349;53.720;10.014;2023-03-14T08:43:43;8.00;;;2.33;;
38581;SDS011;24349;53.720;10.014;2023-03-14T08:46:09;4.97;;;2.00;;
38581;SDS011;24349;53.720;10.014;2023-03-14T08:48:35;9.00;;;2.38;;
38581;SDS011;24349;53.720;10.014;2023-03-14T08:51:04;8.73;;;2.40;;
38581;SDS011;24349;53.720;10.014;2023-03-14T08:53:35;5.68;;;2.20;;
38581;SDS011;24349;53.720;10.014;2023-03-14T08:56:01;7.95;;;2.25;;
38581;SDS011;24349;53.720;10.014;2023-03-14T08:58:26;7.82;;;2.58;;
38581;SDS011;24349;53.720;10.014;2023-03-14T09:00:52;6.10;;;2.40;;
38581;SDS011;24349;53.720;10.014;2023-03-14T09:03:18;7.53;;;2.55;;
38581;SDS011;24349;53.720;10.014;2023-03-14T09:05:43;10.85;;;3.58;;
38581;SDS011;24349;53.720;10.014;2023-03-14T09:08:09;6.32;;;2.28;;
38581;SDS011;24349;53.720;10.014;2023-03-14T09:10:35;8.60;;;2.97;;
38581;SDS011;24349;53.720;10.014;2023-03-14T09:13:01;8.23;;;2.90;;
38581;SDS011;24349;53.720;10.014;2023-03-14T09:15:26;9.07;;;2.72;;
38581;SDS011;24349;53.720;10.014;2023-03-14T09:17:52;8.00;;;2.85;;
38581;SDS011;24349;53.720;10.014;2023-03-14T09:20:18;6.05;;;2.53;;
38581;SDS011;24349;53.720;10.014;2023-03-14T09:22:44;9.23;;;3.05;;
38581;SDS011;24349;53.720;10.014;2023-03-14T09:25:09;8.57;;;3.05;;
38581;SDS011;24349;53.720;10.014;2023-03-14T09:27:35;8.60;;;3.10;;
38581;SDS011;24349;53.720;10.014;2023-03-14T09:30:01;8.05;;;3.10;;
38581;SDS011;24349;53.720;10.014;2023-03-14T09:32:28;7.97;;;3.00;;
38581;SDS011;24349;53.720;10.014;2023-03-14T09:34:54;9.75;;;3.63;;
38581;SDS011;24349;53.720;10.014;2023-03-14T09:37:20;8.80;;;3.95;;
38581;SDS011;24349;53.720;10.014;2023-03-14T09:39:45;4.80;;;2.00;;
38581;SDS011;24349;53.720;10.014;2023-03-14T09:42:13;5.10;;;2.28;;
38581;SDS011;24349;53.720;10.014;2023-03-14T09:44:51;5.43;;;1.80;;
38581;SDS011;24349;53.720;10.014;2023-03-14T09:47:22;4.78;;;1.50;;
38581;SDS011;24349;53.720;10.014;2023-03-14T09:49:49;4.60;;;1.30;;
38581;SDS011;24349;53.720;10.014;2023-03-14T09:52:36;2.83;;;1.30;;
38581;SDS011;24349;53.720;10.014;2023-03-14T09:55:05;6.18;;;1.50;;
38581;SDS011;24349;53.720;10.014;2023-03-14T09:57:36;4.75;;;1.55;;
38581;SDS011;24349;53.720;10.014;2023-03-14T10:05:34;4.05;;;1.10;;
38581;SDS011;24349;53.720;10.014;2023-03-14T10:07:59;3.50;;;1.20;;
38581;SDS011;24349;53.720;10.014;2023-03-14T10:10:26;3.90;;;1.40;;
38581;SDS011;24349;53.720;10.014;2023-03-14T10:12:55;4.20;;;1.30;;
38581;SDS011;24349;53.720;10.014;2023-03-14T10:15:33;3.92;;;1.30;;
38581;SDS011;24349;53.720;10.014;2023-03-14T10:18:00;2.47;;;1.10;;
38581;SDS011;24349;53.720;10.014;2023-03-14T10:25:44;4.18;;;1.15;;
38581;SDS011;24349;53.720;10.014;2023-03-14T10:28:24;2.65;;;1.05;;
38581;SDS011;24349;53.720;10.014;2023-03-14T10:30:58;4.43;;;1.10;;
38581;SDS011;24349;53.720;10.014;2023-03-14T10:33:27;2.47;;;0.85;;
38581;SDS011;24349;53.720;10.014;2023-03-14T10:36:00;2.45;;;0.85;;
38581;SDS011;24349;53.720;10.014;2023-03-14T10:38:28;1.00;;;0.60;;
38581;SDS011;24349;53.720;10.014;2023-03-14T10:41:00;3.85;;;0.90;;
38581;SDS011;24349;53.720;10.014;2023-03-14T10:43:31;4.38;;;1.20;;
38581;SDS011;24349;53.720;10.014;2023-03-14T10:45:59;4.32;;;1.00;;
38581;SDS011;24349;53.720;10.014;2023-03-14T10:48:39;3.40;;;1.10;;
38581;SDS011;24349;53.720;10.014;2023-03-14T10:53:43;2.65;;;0.88;;
38581;SDS011;24349;53.720;10.014;2023-03-14T10:56:14;4.47;;;0.90;;
38581;SDS011;24349;53.720;10.014;2023-03-14T10:58:46;2.15;;;0.77;;
38581;SDS011;24349;53.720;10.014;2023-03-14T11:03:56;2.40;;;0.90;;
38581;SDS011;24349;53.720;10.014;2023-03-14T11:09:21;3.35;;;1.00;;
38581;SDS011;24349;53.720;10.014;2023-03-14T11:12:08;2.47;;;0.90;;
38581;SDS011;24349;53.720;10.014;2023-03-14T11:14:45;1.70;;;0.70;;
38581;SDS011;24349;53.720;10.014;2023-03-14T11:17:25;2.75;;;0.82;;
38581;SDS011;24349;53.720;10.014;2023-03-14T11:20:23;2.27;;;1.00;;
38581;SDS011;24349;53.720;10.014;2023-03-14T11:22:58;3.65;;;1.10;;
38581;SDS011;24349;53.720;10.014;2023-03-14T11:31:09;7.60;;;1.60;;
38581;SDS011;24349;53.720;10.014;2023-03-14T11:36:33;5.82;;;1.58;;
38581;SDS011;24349;53.720;10.014;2023-03-14T11:39:07;6.78;;;1.75;;
38581;SDS011;24349;53.720;10.014;2023-03-14T11:41:41;4.65;;;1.20;;
38581;SDS011;24349;53.720;10.014;2023-03-14T11:49:50;7.80;;;1.85;;
38581;SDS011;24349;53.720;10.014;2023-03-14T11:52:22;7.82;;;1.80;;
38581;SDS011;24349;53.720;10.014;2023-03-14T11:55:09;15.15;;;7.07;;
38581;SDS011;24349;53.720;10.014;2023-03-14T11:57:53;12.38;;;5.82;;
38581;SDS011;24349;53.720;10.014;2023-03-14T12:00:23;7.47;;;2.30;;
38581;SDS011;24349;53.720;10.014;2023-03-14T12:13:31;7.55;;;1.90;;
38581;SDS011;24349;53.720;10.014;2023-03-14T12:15:59;11.40;;;2.50;;
38581;SDS011;24349;53.720;10.014;2023-03-14T12:18:33;9.98;;;2.40;;
38581;SDS011;24349;53.720;10.014;2023-03-14T12:21:04;6.60;;;1.67;;
38581;SDS011;24349;53.720;10.014;2023-03-14T12:23:51;8.10;;;1.75;;
38581;SDS011;24349;53.720;10.014;2023-03-14T12:29:31;10.40;;;2.00;;
38581;SDS011;24349;53.720;10.014;2023-03-14T12:31:44;9.00;;;1.95;;
38581;SDS011;24349;53.720;10.014;2023-03-14T12:36:49;11.20;;;2.50;;
38581;SDS011;24349;53.720;10.014;2023-03-14T12:39:24;8.07;;;1.83;;
38581;SDS011;24349;53.720;10.014;2023-03-14T12:42:21;7.68;;;1.80;;
38581;SDS011;24349;53.720;10.014;2023-03-14T12:45:23;10.07;;;2.28;;
38581;SDS011;24349;53.720;10.014;2023-03-14T12:47:54;9.15;;;2.20;;
38581;SDS011;24349;53.720;10.014;2023-03-14T12:50:22;10.00;;;1.92;;
38581;SDS011;24349;53.720;10.014;2023-03-14T12:52:55;10.07;;;1.98;;
38581;SDS011;24349;53.720;10.014;2023-03-14T12:55:45;9.90;;;2.33;;
38581;SDS011;24349;53.720;10.014;2023-03-14T12:58:25;10.93;;;2.10;;
38581;SDS011;24349;53.720;10.014;2023-03-14T13:00:55;10.40;;;2.65;;
38581;SDS011;24349;53.720;10.014;2023-03-14T13:03:25;11.80;;;2.30;;
38581;SDS011;24349;53.720;10.014;2023-03-14T13:06:01;11.55;;;2.20;;
38581;SDS011;24349;53.720;10.014;2023-03-14T13:11:07;11.88;;;3.30;;
38581;SDS011;24349;53.720;10.014;2023-03-14T13:13:41;9.73;;;2.50;;
38581;SDS011;24349;53.720;10.014;2023-03-14T13:18:40;11.20;;;2.30;;
38581;SDS011;24349;53.720;10.014;2023-03-14T13:21:15;15.55;;;3.17;;
38581;SDS011;24349;53.720;10.014;2023-03-14T13:23:59;13.48;;;4.60;;
38581;SDS011;24349;53.720;10.014;2023-03-14T13:26:36;13.80;;;3.00;;
38581;SDS011;24349;53.720;10.014;2023-03-14T13:31:51;12.88;;;2.20;;
38581;SDS011;24349;53.720;10.014;2023-03-14T13:34:19;9.75;;;2.53;;
38581;SDS011;24349;53.720;10.014;2023-03-14T13:36:45;7.45;;;1.88;;
38581;SDS011;24349;53.720;10.014;2023-03-14T13:39:16;9.45;;;1.92;;
38581;SDS011;24349;53.720;10.014;2023-03-14T13:41:43;8.18;;;1.98;;
38581;SDS011;24349;53.720;10.014;2023-03-14T13:44:15;7.85;;;1.67;;
38581;SDS011;24349;53.720;10.014;2023-03-14T13:46:46;9.98;;;1.92;;
38581;SDS011;24349;53.720;10.014;2023-03-14T13:49:21;10.68;;;1.90;;
38581;SDS011;24349;53.720;10.014;2023-03-14T13:51:48;9.27;;;2.10;;
38581;SDS011;24349;53.720;10.014;2023-03-14T13:54:15;9.65;;;1.77;;
38581;SDS011;24349;53.720;10.014;2023-03-14T13:56:42;13.15;;;2.00;;
38581;SDS011;24349;53.720;10.014;2023-03-14T13:59:27;8.45;;;1.88;;
38581;SDS011;24349;53.720;10.014;2023-03-14T14:01:54;10.50;;;2.03;;
38581;SDS011;24349;53.720;10.014;2023-03-14T14:04:23;10.32;;;2.60;;
38581;SDS011;24349;53.720;10.014;2023-03-14T14:06:55;8.38;;;1.80;;
38581;SDS011;24349;53.720;10.014;2023-03-14T14:16:49;9.23;;;1.77;;
38581;SDS011;24349;53.720;10.014;2023-03-14T14:19:17;10.23;;;2.10;;
38581;SDS011;24349;53.720;10.014;2023-03-14T14:21:46;7.93;;;1.67;;
38581;SDS011;24349;53.720;10.014;2023-03-14T14:24:12;8.38;;;1.80;;
38581;SDS011;24349;53.720;10.014;2023-03-14T14:26:40;6.10;;;2.15;;
38581;SDS011;24349;53.720;10.014;2023-03-14T14:29:20;10.05;;;2.25;;
38581;SDS011;24349;53.720;10.014;2023-03-14T14:32:00;11.40;;;2.00;;
38581;SDS011;24349;53.720;10.014;2023-03-14T14:34:37;8.13;;;2.05;;
38581;SDS011;24349;53.720;10.014;2023-03-14T14:37:18;9.50;;;2.53;;
38581;SDS011;24349;53.720;10.014;2023-03-14T14:39:48;6.78;;;1.98;;
38581;SDS011;24349;53.720;10.014;2023-03-14T14:42:16;10.80;;;2.08;;
38581;SDS011;24349;53.720;10.014;2023-03-14T14:44:47;7.45;;;2.10;;
38581;SDS011;24349;53.720;10.014;2023-03-14T14:47:16;8.77;;;2.10;;
38581;SDS011;24349;53.720;10.014;2023-03-14T14:49:44;6.93;;;1.67;;
38581;SDS011;24349;53.720;10.014;2023-03-14T14:52:19;7.40;;;1.83;;
38581;SDS011;24349;53.720;10.014;2023-03-14T14:54:58;6.63;;;1.70;;
38581;SDS011;24349;53.720;10.014;2023-03-14T14:57:26;8.93;;;1.67;;
38581;SDS011;24349;53.720;10.014;2023-03-14T15:00:06;6.78;;;1.67;;
38581;SDS011;24349;53.720;10.014;2023-03-14T15:02:44;8.63;;;1.50;;
38581;SDS011;24349;53.720;10.014;2023-03-14T15:05:19;7.47;;;1.52;;
38581;SDS011;24349;53.720;10.014;2023-03-14T15:07:46;6.65;;;1.40;;
38581;SDS011;24349;53.720;10.014;2023-03-14T15:10:13;10.15;;;2.50;;
38581;SDS011;24349;53.720;10.014;2023-03-14T15:12:43;10.85;;;2.80;;
38581;SDS011;24349;53.720;10.014;2023-03-14T15:15:09;8.43;;;2.60;;
38581;SDS011;24349;53.720;10.014;2023-03-14T15:17:35;8.15;;;2.38;;
38581;SDS011;24349;53.720;10.014;2023-03-14T15:20:03;9.70;;;3.20;;
38581;SDS011;24349;53.720;10.014;2023-03-14T15:22:35;12.02;;;3.00;;
38581;SDS011;24349;53.720;10.014;2023-03-14T15:25:00;12.77;;;3.42;;
38581;SDS011;24349;53.720;10.014;2023-03-14T15:27:26;9.45;;;2.15;;
38581;SDS011;24349;53.720;10.014;2023-03-14T15:29:55;10.07;;;2.13;;
38581;SDS011;24349;53.720;10.014;2023-03-14T15:32:21;10.52;;;2.75;;
38581;SDS011;24349;53.720;10.014;2023-03-14T15:34:46;9.48;;;2.67;;
38581;SDS011;24349;53.720;10.014;2023-03-14T15:37:13;10.30;;;2.78;;
38581;SDS011;24349;53.720;10.014;2023-03-14T15:39:41;9.13;;;2.50;;
38581;SDS011;24349;53.720;10.014;2023-03-14T15:42:10;9.27;;;2.72;;
38581;SDS011;24349;53.720;10.014;2023-03-14T15:44:36;8.45;;;2.42;;